Time;durP1;ratioP1;P1;durP2;ratioP2;P2;SDS_P1;SDS_P2;PMS_P1;PMS_P2;Temp;Humidity;BMP_temperature;BMP_pressure;BME280_temperature;BME280_humidity;BME280_pressure;Samples;Min_cycle;Max_cycle;Signal;HPM_P1;HPM_P2
2023/04/14 00:01:12;;;;;;;4.30;2.10;;;7.70;99.90;;;;;;5072110;28;20473;-69
2023/04/14 00:03:39;;;;;;;2.05;0.85;;;7.60;99.90;;;;;;5072303;28;20056;-70
2023/04/14 00:06:05;;;;;;;1.50;0.85;;;7.50;99.90;;;;;;5072237;28;20021;-71
2023/04/14 00:08:30;;;;;;;2.15;1.67;;;7.50;99.90;;;;;;5072156;28;20028;-71
2023/04/14 00:10:56;;;;;;;16.58;1.63;;;7.40;99.90;;;;;;5072027;28;20142;-70
2023/04/14 00:13:22;;;;;;;0.20;0.20;;;7.60;99.90;;;;;;5072266;28;20039;-71
2023/04/14 00:15:47;;;;;;;0.47;0.47;;;7.50;99.90;;;;;;5070871;28;20108;-70
2023/04/14 00:18:13;;;;;;;2.60;2.38;;;7.50;99.90;;;;;;5072396;28;20380;-71
2023/04/14 00:20:39;;;;;;;5.30;1.30;;;7.50;99.90;;;;;;5072001;28;20025;-71
2023/04/14 00:23:05;;;;;;;2.42;2.22;;;7.40;99.90;;;;;;5072213;28;20056;-71
2023/04/14 00:25:30;;;;;;;1.38;1.38;;;7.60;99.90;;;;;;5071551;28;20044;-71
2023/04/14 00:27:56;;;;;;;1.23;1.13;;;7.60;99.90;;;;;;5077706;28;20091;-70
2023/04/14 00:30:22;;;;;;;19.58;0.55;;;7.50;99.90;;;;;;5090830;28;20464;-71
2023/04/14 00:32:47;;;;;;;0.10;0.10;;;7.40;99.90;;;;;;5089061;28;20038;-70
2023/04/14 00:35:13;;;;;;;0.10;0.10;;;7.50;99.90;;;;;;5091948;28;20030;-71
2023/04/14 00:37:39;;;;;;;0.10;0.10;;;7.40;99.90;;;;;;5092070;28;20019;-70
2023/04/14 00:40:08;;;;;;;0.20;0.20;;;7.50;99.90;;;;;;5091996;28;20426;-70
2023/04/14 00:42:42;;;;;;;0.10;0.10;;;7.60;99.90;;;;;;5092030;28;20035;-70
2023/04/14 00:45:08;;;;;;;0.30;0.30;;;7.70;99.90;;;;;;5092001;28;20487;-70
2023/04/14 00:47:33;;;;;;;0.10;0.10;;;7.70;99.90;;;;;;5093003;28;20080;-70
2023/04/14 00:50:00;;;;;;;0.10;0.10;;;7.60;99.90;;;;;;5095626;28;20027;-71
2023/04/14 00:52:26;;;;;;;0.10;0.10;;;7.80;99.90;;;;;;5094426;28;20476;-70
2023/04/14 00:54:53;;;;;;;0.43;0.43;;;7.60;99.90;;;;;;5066039;28;20492;-70
2023/04/14 00:57:19;;;;;;;0.10;0.10;;;7.50;99.90;;;;;;5094220;28;20035;-70
2023/04/14 00:59:45;;;;;;;2.55;0.45;;;7.50;99.90;;;;;;5094236;28;20024;-70
2023/04/14 01:02:11;;;;;;;0.10;0.10;;;7.40;99.90;;;;;;5094184;28;20028;-70
2023/04/14 01:04:37;;;;;;;0.13;0.13;;;7.30;99.90;;;;;;5094023;28;20036;-70
2023/04/14 01:07:03;;;;;;;0.10;0.10;;;7.40;99.90;;;;;;5087734;28;20479;-70
2023/04/14 01:09:30;;;;;;;0.10;0.10;;;7.20;99.90;;;;;;5089028;28;20078;-71
2023/04/14 01:12:11;;;;;;;1.25;1.15;;;7.20;99.90;;;;;;5093990;28;20028;-70
2023/04/14 01:14:54;;;;;;;0.28;0.28;;;7.20;99.90;;;;;;5095368;28;20548;-70
2023/04/14 01:18:04;;;;;;;0.22;0.22;;;7.20;99.90;;;;;;5095057;28;20020;-70
2023/04/14 01:20:50;;;;;;;0.40;0.40;;;7.00;99.90;;;;;;5074959;28;20043;-70
2023/04/14 01:23:26;;;;;;;0.22;0.22;;;7.10;99.90;;;;;;5094966;28;20050;-70
2023/04/14 01:26:10;;;;;;;0.25;0.25;;;7.20;99.90;;;;;;5093745;28;20043;-71
2023/04/14 01:28:51;;;;;;;0.85;0.85;;;7.20;99.90;;;;;;5093553;28;20077;-70
2023/04/14 01:31:43;;;;;;;0.22;0.22;;;6.90;99.90;;;;;;5093682;28;20487;-71
2023/04/14 01:34:22;;;;;;;0.10;0.10;;;6.90;99.90;;;;;;5095060;28;20103;-72
2023/04/14 01:36:56;;;;;;;14.82;0.43;;;7.00;99.90;;;;;;5094861;28;20028;-70
2023/04/14 01:39:26;;;;;;;3.10;0.95;;;7.00;99.90;;;;;;5092992;28;20051;-71
2023/04/14 01:42:00;;;;;;;0.47;0.47;;;7.10;99.90;;;;;;5093357;28;20389;-71
2023/04/14 01:44:29;;;;;;;2.58;2.38;;;7.10;99.90;;;;;;5093408;28;20031;-70
2023/04/14 01:47:00;;;;;;;0.28;0.22;;;7.10;99.90;;;;;;5093502;28;20055;-70
2023/04/14 01:49:28;;;;;;;0.10;0.10;;;6.90;99.90;;;;;;5081143;28;20024;-70
2023/04/14 01:51:55;;;;;;;0.13;0.13;;;7.00;99.90;;;;;;5094341;28;20037;-70
2023/04/14 01:54:23;;;;;;;1.25;0.95;;;7.00;99.90;;;;;;5092816;28;20024;-71
2023/04/14 01:56:51;;;;;;;0.52;0.52;;;6.80;99.90;;;;;;5093125;28;20396;-70
2023/04/14 01:59:19;;;;;;;0.20;0.20;;;6.60;99.90;;;;;;5092108;28;20062;-70
2023/04/14 02:01:46;;;;;;;0.10;0.10;;;6.50;99.90;;;;;;5092859;28;20410;-70
2023/04/14 02:04:12;;;;;;;0.52;0.52;;;6.40;99.90;;;;;;5093112;28;20480;-70
2023/04/14 02:06:39;;;;;;;0.10;0.10;;;6.40;99.90;;;;;;5092926;28;20426;-70
2023/04/14 02:09:09;;;;;;;0.10;0.10;;;6.50;99.90;;;;;;5092681;28;20055;-70
2023/04/14 02:11:36;;;;;;;0.10;0.10;;;6.50;99.90;;;;;;5094106;28;20044;-70
2023/04/14 02:14:03;;;;;;;0.05;0.05;;;6.70;99.90;;;;;;5092738;28;20016;-70
2023/04/14 02:16:30;;;;;;;0.10;0.10;;;6.70;99.90;;;;;;5092680;28;20024;-71
2023/04/14 02:18:57;;;;;;;0.30;0.30;;;6.70;99.90;;;;;;5092871;28;20044;-70
2023/04/14 02:21:26;;;;;;;0.05;0.05;;;6.70;99.90;;;;;;5075598;28;20038;-70
2023/04/14 02:23:51;;;;;;;0.10;0.10;;;6.70;99.90;;;;;;5093938;28;20024;-71
2023/04/14 02:26:21;;;;;;;4.90;1.17;;;6.70;99.90;;;;;;5093959;28;20028;-71
2023/04/14 02:29:15;;;;;;;0.13;0.13;;;6.60;99.90;;;;;;5092507;28;20472;-70
2023/04/14 02:31:50;;;;;;;0.10;0.10;;;6.50;99.90;;;;;;5090582;28;20044;-70
2023/04/14 02:34:22;;;;;;;0.00;0.00;;;6.60;99.90;;;;;;5093835;28;20040;-71
2023/04/14 02:36:52;;;;;;;;;;;6.50;99.90;;;;;;5092638;28;20080;-71
2023/04/14 02:39:42;;;;;;;1.08;0.75;;;6.60;99.90;;;;;;5092313;28;19957;-70
2023/04/14 02:42:14;;;;;;;0.47;0.43;;;6.60;99.90;;;;;;5092218;28;20027;-71
2023/04/14 02:44:47;;;;;;;;;;;6.30;99.90;;;;;;5092665;28;20036;-71
2023/04/14 02:47:24;;;;;;;1.73;0.90;;;6.30;99.90;;;;;;5093679;28;19915;-71
2023/04/14 02:49:52;;;;;;;2.83;1.30;;;6.40;99.90;;;;;;5092064;28;20020;-71
2023/04/14 02:52:23;;;;;;;1.95;1.85;;;6.30;99.90;;;;;;5091963;28;20028;-70
2023/04/14 02:54:52;;;;;;;0.10;0.10;;;6.10;99.90;;;;;;5075417;28;20016;-71
2023/04/14 02:57:20;;;;;;;0.08;0.08;;;6.10;99.90;;;;;;5092160;28;20114;-70
2023/04/14 02:59:50;;;;;;;0.10;0.10;;;6.20;99.90;;;;;;5092064;28;20027;-70
2023/04/14 03:02:17;;;;;;;0.10;0.10;;;6.20;99.90;;;;;;5091874;28;20097;-70
2023/04/14 03:04:48;;;;;;;0.98;0.95;;;6.20;99.90;;;;;;5091513;28;20062;-70
2023/04/14 03:07:26;;;;;;;1.17;0.65;;;6.20;99.90;;;;;;5091663;28;20495;-71
2023/04/14 03:09:53;;;;;;;0.00;0.00;;;6.10;99.90;;;;;;5091441;28;20043;-70
2023/04/14 03:12:23;;;;;;;0.10;0.10;;;6.20;99.90;;;;;;5091878;28;20371;-71
2023/04/14 03:14:50;;;;;;;0.00;0.00;;;6.50;99.90;;;;;;5092798;28;20055;-71
2023/04/14 03:17:17;;;;;;;0.10;0.10;;;6.40;99.90;;;;;;5091568;28;20031;-71
2023/04/14 03:19:47;;;;;;;0.08;0.08;;;6.40;99.90;;;;;;5091308;28;20059;-70
2023/04/14 03:22:14;;;;;;;0.08;0.08;;;6.40;99.90;;;;;;5091930;28;20058;-70
2023/04/14 03:24:43;;;;;;;0.10;0.10;;;6.40;99.90;;;;;;5092642;28;20434;-71
2023/04/14 03:27:17;;;;;;;0.10;0.10;;;6.40;99.90;;;;;;5091800;28;20020;-71
2023/04/14 03:29:50;;;;;;;0.10;0.10;;;6.40;99.90;;;;;;5091498;28;20426;-71
2023/04/14 03:32:17;;;;;;;0.10;0.10;;;6.40;99.90;;;;;;5079590;28;20445;-71
2023/04/14 03:34:47;;;;;;;1.33;0.63;;;6.40;99.90;;;;;;5090955;28;20024;-71
2023/04/14 03:37:19;;;;;;;0.20;0.20;;;6.50;99.90;;;;;;5091409;28;20016;-71
2023/04/14 03:39:49;;;;;;;0.10;0.10;;;6.20;99.90;;;;;;5074778;28;20036;-70
2023/04/14 03:42:21;;;;;;;0.10;0.10;;;6.10;99.90;;;;;;5091421;28;20381;-70
2023/04/14 03:44:52;;;;;;;0.10;0.10;;;6.10;99.90;;;;;;5091270;28;20126;-70
2023/04/14 03:47:18;;;;;;;0.10;0.10;;;6.20;99.90;;;;;;5091490;28;20023;-71
2023/04/14 03:49:46;;;;;;;0.00;0.00;;;6.20;99.90;;;;;;5090926;28;20028;-71
2023/04/14 03:52:14;;;;;;;0.10;0.10;;;6.20;99.90;;;;;;5091274;28;20468;-71
2023/04/14 03:54:43;;;;;;;0.10;0.10;;;6.20;99.90;;;;;;5091384;28;20043;-71
2023/04/14 03:57:12;;;;;;;0.10;0.10;;;6.20;99.90;;;;;;5091502;28;20059;-71
2023/04/14 03:59:41;;;;;;;0.10;0.10;;;6.20;99.90;;;;;;5091150;28;20067;-71
2023/04/14 04:02:09;;;;;;;0.10;0.10;;;6.10;99.90;;;;;;5091422;28;20186;-71
2023/04/14 04:04:35;;;;;;;0.10;0.10;;;6.00;99.90;;;;;;5090469;28;20332;-71
2023/04/14 04:07:03;;;;;;;0.08;0.08;;;6.00;99.90;;;;;;5091439;28;20028;-70
2023/04/14 04:09:32;;;;;;;0.15;0.15;;;6.00;99.90;;;;;;5091403;28;20039;-70
2023/04/14 04:12:00;;;;;;;0.10;0.10;;;6.10;99.90;;;;;;5091195;28;20035;-70
2023/04/14 04:14:28;;;;;;;0.95;0.95;;;6.10;99.90;;;;;;5090801;28;20031;-71
2023/04/14 04:16:58;;;;;;;0.00;0.00;;;6.00;99.90;;;;;;5091178;28;20028;-70
2023/04/14 04:19:25;;;;;;;0.30;0.30;;;5.90;99.90;;;;;;5090691;28;20031;-71
2023/04/14 04:21:55;;;;;;;0.05;0.05;;;6.00;99.90;;;;;;5092375;28;20032;-70
2023/04/14 04:24:23;;;;;;;0.10;0.10;;;5.90;99.90;;;;;;5094758;28;20036;-70
2023/04/14 04:26:51;;;;;;;0.10;0.10;;;5.90;99.90;;;;;;5094786;28;20375;-70
2023/04/14 04:29:18;;;;;;;1.05;0.95;;;5.90;99.90;;;;;;5095165;28;20028;-70
2023/04/14 04:31:44;;;;;;;0.70;0.35;;;5.90;99.90;;;;;;5077700;28;20031;-70
2023/04/14 04:34:11;;;;;;;0.10;0.10;;;5.80;99.90;;;;;;5094698;28;20384;-70
2023/04/14 04:36:40;;;;;;;0.08;0.08;;;5.70;99.90;;;;;;5094719;28;20020;-70
2023/04/14 04:39:06;;;;;;;0.30;0.30;;;5.80;99.90;;;;;;5094472;28;20028;-70
2023/04/14 04:41:36;;;;;;;0.10;0.10;;;5.80;99.90;;;;;;5094619;28;20032;-70
2023/04/14 04:44:02;;;;;;;0.95;0.52;;;5.90;99.90;;;;;;5094683;28;20020;-70
2023/04/14 04:46:47;;;;;;;0.10;0.10;;;5.90;99.90;;;;;;5095312;28;20020;-71
2023/04/14 04:49:14;;;;;;;0.15;0.15;;;5.90;99.90;;;;;;5093875;28;20016;-70
2023/04/14 04:51:40;;;;;;;0.43;0.43;;;5.90;99.90;;;;;;5077063;28;20472;-70
2023/04/14 04:54:06;;;;;;;0.20;0.20;;;5.70;99.90;;;;;;5094302;28;20028;-70
2023/04/14 04:56:32;;;;;;;1.13;0.57;;;5.70;99.90;;;;;;5095568;28;20036;-70
2023/04/14 04:58:58;;;;;;;0.10;0.10;;;5.80;99.90;;;;;;5095674;28;20035;-70
2023/04/14 05:01:24;;;;;;;0.10;0.10;;;5.70;99.90;;;;;;5095169;28;20012;-70
2023/04/14 05:03:49;;;;;;;0.10;0.10;;;5.70;99.90;;;;;;5091831;28;20497;-70
2023/04/14 05:06:15;;;;;;;0.10;0.10;;;5.90;99.90;;;;;;5091372;28;20032;-71
2023/04/14 05:08:41;;;;;;;0.00;0.00;;;5.90;99.90;;;;;;5095720;28;20376;-71
2023/04/14 05:11:07;;;;;;;0.10;0.10;;;6.10;99.90;;;;;;5095054;28;20039;-71
2023/04/14 05:13:33;;;;;;;0.15;0.15;;;6.00;99.90;;;;;;5095496;28;20021;-70
2023/04/14 05:16:06;;;;;;;0.10;0.10;;;6.10;99.90;;;;;;5094820;28;20049;-71
2023/04/14 05:18:33;;;;;;;0.10;0.10;;;6.20;99.90;;;;;;5095343;28;20028;-71
2023/04/14 05:21:06;;;;;;;0.10;0.10;;;6.20;99.90;;;;;;5094990;28;20038;-71
2023/04/14 05:23:33;;;;;;;0.10;0.10;;;6.40;99.90;;;;;;5095284;28;20035;-71
2023/04/14 05:25:59;;;;;;;0.10;0.10;;;6.30;99.90;;;;;;5095004;28;20032;-71
2023/04/14 05:28:25;;;;;;;0.50;0.50;;;6.30;99.90;;;;;;5095055;28;20020;-71
2023/04/14 05:30:51;;;;;;;0.10;0.10;;;6.40;99.90;;;;;;5094782;28;20024;-71
2023/04/14 05:33:18;;;;;;;3.83;1.65;;;6.60;99.90;;;;;;5094612;28;20421;-71
2023/04/14 05:35:44;;;;;;;0.80;0.45;;;6.70;99.90;;;;;;5094981;28;20020;-71
2023/04/14 05:38:10;;;;;;;0.47;0.47;;;6.80;99.90;;;;;;5094438;28;20036;-71
2023/04/14 05:40:36;;;;;;;4.47;1.17;;;6.80;99.90;;;;;;5094785;28;20480;-71
2023/04/14 05:43:02;;;;;;;0.10;0.10;;;7.00;99.90;;;;;;5094567;28;20036;-71
2023/04/14 05:45:28;;;;;;;0.17;0.17;;;7.10;99.90;;;;;;5094121;28;20107;-71
2023/04/14 05:47:54;;;;;;;0.10;0.10;;;7.00;99.90;;;;;;5094715;28;20119;-71
2023/04/14 05:50:21;;;;;;;0.38;0.38;;;6.90;99.90;;;;;;5094591;28;20020;-71
2023/04/14 05:52:47;;;;;;;0.20;0.20;;;6.90;99.90;;;;;;5094355;28;20107;-71
2023/04/14 05:55:13;;;;;;;0.80;0.68;;;7.00;99.90;;;;;;5093290;28;20020;-71
2023/04/14 05:57:39;;;;;;;1.48;0.82;;;7.10;99.90;;;;;;5093167;28;20020;-71
2023/04/14 06:00:06;;;;;;;2.13;1.08;;;7.00;99.90;;;;;;5094305;28;20388;-71
2023/04/14 06:02:39;;;;;;;0.40;0.40;;;7.00;99.90;;;;;;5094254;28;20383;-71
2023/04/14 06:05:06;;;;;;;0.40;0.40;;;7.10;99.90;;;;;;5081206;28;20035;-70
2023/04/14 06:07:35;;;;;;;11.60;0.90;;;7.20;99.90;;;;;;5078081;28;20031;-71
2023/04/14 06:10:02;;;;;;;4.05;1.30;;;7.30;99.90;;;;;;5075844;28;20040;-70
2023/04/14 06:12:28;;;;;;;4.28;1.35;;;7.30;99.90;;;;;;5074725;28;20028;-71
2023/04/14 06:14:56;;;;;;;1.30;0.95;;;7.30;99.90;;;;;;5073693;28;20023;-70
2023/04/14 06:17:22;;;;;;;27.38;1.58;;;7.40;99.90;;;;;;5079537;28;20020;-71
2023/04/14 06:19:48;;;;;;;0.28;0.28;;;7.50;99.90;;;;;;5077057;28;20020;-71
2023/04/14 06:22:18;;;;;;;1.23;0.57;;;7.50;99.90;;;;;;5074280;28;20412;-71
2023/04/14 06:24:46;;;;;;;0.70;0.70;;;7.50;99.90;;;;;;5070901;28;20040;-71
2023/04/14 06:27:13;;;;;;;2.45;1.23;;;7.50;99.90;;;;;;5080939;28;20396;-70
2023/04/14 06:29:39;;;;;;;2.38;1.42;;;7.50;99.90;;;;;;5078359;28;20686;-71
2023/04/14 06:32:05;;;;;;;2.72;1.70;;;7.50;99.90;;;;;;5076253;28;20024;-71
2023/04/14 06:34:30;;;;;;;0.30;0.30;;;7.50;99.90;;;;;;5075585;28;20029;-71
2023/04/14 06:36:57;;;;;;;0.40;0.40;;;7.50;99.90;;;;;;5088826;28;20079;-71
2023/04/14 06:39:24;;;;;;;0.10;0.10;;;7.60;99.90;;;;;;5092345;28;20032;-71
2023/04/14 06:41:50;;;;;;;4.00;1.52;;;7.50;99.90;;;;;;5092870;28;20043;-70
2023/04/14 06:44:16;;;;;;;4.45;2.30;;;7.70;99.90;;;;;;5090511;28;20023;-71
2023/04/14 06:46:42;;;;;;;2.17;0.45;;;7.70;99.90;;;;;;5091518;28;20028;-71
2023/04/14 06:49:08;;;;;;;7.03;2.15;;;7.80;99.90;;;;;;5092397;28;20062;-70
2023/04/14 06:51:34;;;;;;;0.17;0.17;;;7.80;99.90;;;;;;5092507;28;20024;-71
2023/04/14 06:54:00;;;;;;;1.88;1.10;;;7.90;99.90;;;;;;5092276;28;20028;-71
2023/04/14 06:56:26;;;;;;;1.02;1.02;;;7.80;99.90;;;;;;5092571;28;20477;-71
2023/04/14 06:58:52;;;;;;;1.27;1.17;;;7.90;99.90;;;;;;5092175;28;20022;-72
2023/04/14 07:01:17;;;;;;;9.63;2.47;;;8.10;99.90;;;;;;5090751;28;20111;-71
2023/04/14 07:03:43;;;;;;;0.63;0.63;;;8.10;99.90;;;;;;5075629;28;20039;-71
2023/04/14 07:06:15;;;;;;;4.47;1.42;;;8.20;99.90;;;;;;5076712;28;20035;-69
2023/04/14 07:08:41;;;;;;;0.30;0.30;;;8.30;99.90;;;;;;5092651;28;20024;-71
2023/04/14 07:11:09;;;;;;;1.17;0.43;;;8.40;99.90;;;;;;5091019;28;20035;-71
2023/04/14 07:13:36;;;;;;;3.70;0.98;;;8.40;99.90;;;;;;5091872;28;20122;-70
2023/04/14 07:16:02;;;;;;;3.65;0.90;;;8.30;99.90;;;;;;5091474;28;20134;-71
2023/04/14 07:18:31;;;;;;;0.85;0.85;;;8.10;99.90;;;;;;5092271;28;20087;-70
2023/04/14 07:20:58;;;;;;;2.60;0.73;;;8.20;99.90;;;;;;5092283;28;20389;-71
2023/04/14 07:23:24;;;;;;;2.60;0.57;;;8.20;99.90;;;;;;5092074;28;20468;-71
2023/04/14 07:25:58;;;;;;;5.28;1.75;;;8.40;99.90;;;;;;5092126;28;20089;-70
2023/04/14 07:28:25;;;;;;;1.27;0.80;;;8.60;99.90;;;;;;5091830;28;20067;-71
2023/04/14 07:30:52;;;;;;;7.95;1.98;;;8.80;99.90;;;;;;5092167;28;20020;-71
2023/04/14 07:33:18;;;;;;;0.10;0.10;;;8.70;99.90;;;;;;5090834;28;20043;-70
2023/04/14 07:35:48;;;;;;;0.82;0.80;;;9.00;99.90;;;;;;5089520;28;20020;-71
2023/04/14 07:38:14;;;;;;;0.25;0.25;;;9.30;99.90;;;;;;5076803;28;20032;-71
2023/04/14 07:40:40;;;;;;;0.95;0.55;;;9.40;99.90;;;;;;5050946;28;20033;-71
2023/04/14 07:43:07;;;;;;;0.68;0.68;;;9.60;99.90;;;;;;5072098;28;20029;-70
2023/04/14 07:45:32;;;;;;;4.57;1.13;;;9.80;99.90;;;;;;5080854;28;20502;-71
2023/04/14 07:47:58;;;;;;;0.30;0.30;;;9.80;99.90;;;;;;5072678;28;20025;-71
2023/04/14 07:50:24;;;;;;;3.97;1.15;;;10.00;99.90;;;;;;5075222;28;20115;-70
2023/04/14 07:52:50;;;;;;;0.93;0.80;;;9.80;99.90;;;;;;5076942;28;20051;-71
2023/04/14 07:55:16;;;;;;;1.45;0.85;;;9.70;99.90;;;;;;5086692;28;20036;-71
2023/04/14 07:57:42;;;;;;;0.30;0.30;;;9.90;99.90;;;;;;5080248;28;20032;-69
2023/04/14 08:00:09;;;;;;;0.43;0.43;;;10.00;99.90;;;;;;5077554;28;20016;-71
2023/04/14 08:02:40;;;;;;;2.17;1.38;;;10.00;99.90;;;;;;5074888;28;20032;-71
2023/04/14 08:05:06;;;;;;;0.30;0.30;;;10.10;99.90;;;;;;5082388;28;20097;-71
2023/04/14 08:07:32;;;;;;;4.93;0.52;;;10.10;99.90;;;;;;5082998;28;20035;-71
2023/04/14 08:09:58;;;;;;;0.20;0.20;;;10.00;99.90;;;;;;5077718;28;20025;-71
2023/04/14 08:12:24;;;;;;;1.10;1.05;;;10.00;99.90;;;;;;5077930;28;20120;-71
2023/04/14 08:14:51;;;;;;;0.80;0.30;;;10.10;99.90;;;;;;5076909;28;20520;-72
2023/04/14 08:17:17;;;;;;;0.30;0.30;;;10.10;99.90;;;;;;5083294;28;20016;-71
2023/04/14 08:19:43;;;;;;;0.75;0.75;;;10.00;99.90;;;;;;5080582;28;20525;-71
2023/04/14 08:22:08;;;;;;;1.30;0.65;;;10.20;99.90;;;;;;5077964;28;20028;-71
2023/04/14 08:24:34;;;;;;;0.32;0.32;;;10.40;99.90;;;;;;5077153;28;20046;-71
2023/04/14 08:27:01;;;;;;;0.68;0.43;;;10.50;99.90;;;;;;5081387;28;20025;-71
2023/04/14 08:29:27;;;;;;;2.05;0.90;;;10.50;99.90;;;;;;5085310;28;20032;-71
2023/04/14 08:31:52;;;;;;;2.72;1.05;;;10.60;99.90;;;;;;5078184;28;20017;-70
2023/04/14 08:34:18;;;;;;;6.88;3.45;;;10.70;99.90;;;;;;5077412;28;20468;-71
2023/04/14 08:36:46;;;;;;;1.65;0.90;;;10.70;99.90;;;;;;5091032;28;20482;-71
2023/04/14 08:39:12;;;;;;;2.95;1.08;;;10.70;99.90;;;;;;5094705;28;20085;-71
2023/04/14 08:41:39;;;;;;;3.17;0.38;;;11.00;99.90;;;;;;5094931;28;20494;-69
2023/04/14 08:44:05;;;;;;;8.88;1.73;;;11.30;99.90;;;;;;5094882;28;20066;-72
2023/04/14 08:46:31;;;;;;;2.10;0.52;;;11.40;99.90;;;;;;5094954;28;20027;-72
2023/04/14 08:49:26;;;;;;;16.10;0.98;;;11.50;99.90;;;;;;5094767;28;20057;-71
2023/04/14 08:51:53;;;;;;;2.90;1.60;;;11.50;99.90;;;;;;5094949;28;20028;-72
2023/04/14 08:54:20;;;;;;;1.65;1.08;;;11.60;99.90;;;;;;5094232;28;20039;-72
2023/04/14 08:56:47;;;;;;;3.13;0.88;;;11.60;99.90;;;;;;5094738;28;20024;-72
2023/04/14 08:59:13;;;;;;;0.43;0.43;;;11.70;99.90;;;;;;5094706;28;20021;-71
2023/04/14 09:01:39;;;;;;;0.77;0.73;;;11.80;99.90;;;;;;5094489;28;20032;-72
2023/04/14 09:04:06;;;;;;;0.88;0.65;;;11.90;99.90;;;;;;5084231;28;20051;-72
2023/04/14 09:06:33;;;;;;;0.20;0.20;;;12.00;99.90;;;;;;5093263;28;20032;-72
2023/04/14 09:09:09;;;;;;;0.40;0.40;;;12.10;99.90;;;;;;5092599;28;20460;-72
2023/04/14 09:11:36;;;;;;;1.13;1.13;;;11.90;99.90;;;;;;5094150;28;20044;-72
2023/04/14 09:14:03;;;;;;;0.30;0.30;;;12.00;99.90;;;;;;5094482;28;20032;-71
2023/04/14 09:16:29;;;;;;;0.93;0.93;;;12.20;99.90;;;;;;5092326;28;20096;-71
2023/04/14 09:18:56;;;;;;;0.98;0.50;;;12.30;99.90;;;;;;5078499;28;20028;-72
2023/04/14 09:21:23;;;;;;;0.10;0.10;;;12.70;99.90;;;;;;5075857;28;20040;-72
2023/04/14 09:23:49;;;;;;;0.75;0.50;;;12.80;99.90;;;;;;5078168;28;20021;-71
2023/04/14 09:26:15;;;;;;;0.10;0.10;;;12.70;99.90;;;;;;5075711;28;20024;-72
2023/04/14 09:28:41;;;;;;;2.40;0.30;;;12.60;99.90;;;;;;5086410;28;20376;-71
2023/04/14 09:31:07;;;;;;;0.85;0.60;;;12.70;99.90;;;;;;5080035;28;20032;-71
2023/04/14 09:33:37;;;;;;;0.40;0.30;;;12.60;99.90;;;;;;5074790;28;20034;-72
2023/04/14 09:36:04;;;;;;;0.75;0.75;;;12.70;99.90;;;;;;5084702;28;20105;-72
2023/04/14 09:38:37;;;;;;;0.20;0.20;;;12.90;99.90;;;;;;5090884;28;20034;-71
2023/04/14 09:41:06;;;;;;;0.60;0.30;;;13.10;99.90;;;;;;5066983;28;20039;-72
2023/04/14 09:43:32;;;;;;;0.73;0.68;;;13.40;99.90;;;;;;5093773;28;20047;-71
2023/04/14 09:46:08;;;;;;;0.30;0.30;;;13.30;99.90;;;;;;5093771;28;20038;-72
2023/04/14 09:48:38;;;;;;;0.20;0.20;;;13.50;99.90;;;;;;5092361;28;20094;-71
2023/04/14 09:51:08;;;;;;;0.40;0.40;;;13.40;99.70;;;;;;5093527;28;20111;-71
2023/04/14 09:53:39;;;;;;;2.63;0.65;;;13.20;99.90;;;;;;5092374;28;20028;-71
2023/04/14 09:56:09;;;;;;;1.67;0.40;;;13.30;99.90;;;;;;5092127;28;20110;-72
2023/04/14 09:58:37;;;;;;;0.52;0.52;;;13.70;99.90;;;;;;5089965;28;20111;-72
2023/04/14 10:01:04;;;;;;;0.17;0.17;;;13.90;99.90;;;;;;5092438;28;20016;-72
2023/04/14 10:03:36;;;;;;;60.03;3.75;;;13.80;99.50;;;;;;5087726;28;20044;-72
2023/04/14 10:06:09;;;;;;;1.35;0.68;;;14.10;99.90;;;;;;5088061;28;20050;-71
2023/04/14 10:08:37;;;;;;;3.30;1.10;;;14.20;97.60;;;;;;5072697;28;20435;-72
2023/04/14 10:11:17;;;;;;;0.30;0.25;;;14.20;97.80;;;;;;5076648;28;20447;-71
2023/04/14 10:13:44;;;;;;;1.52;0.55;;;13.80;98.30;;;;;;5085654;28;20582;-71
2023/04/14 10:16:10;;;;;;;0.30;0.25;;;13.80;98.00;;;;;;5091285;28;20037;-71
2023/04/14 10:18:36;;;;;;;0.30;0.30;;;13.70;97.80;;;;;;5092780;28;20020;-72
2023/04/14 10:21:03;;;;;;;1.30;0.40;;;13.90;98.00;;;;;;5092445;28;20036;-72
2023/04/14 10:23:30;;;;;;;2.78;1.02;;;14.20;97.90;;;;;;5092812;28;20020;-71
2023/04/14 10:25:57;;;;;;;2.78;0.40;;;14.10;97.10;;;;;;5089012;28;20483;-71
2023/04/14 10:28:24;;;;;;;1.75;0.65;;;13.90;97.50;;;;;;5092871;28;20420;-72
2023/04/14 10:30:51;;;;;;;1.13;0.52;;;14.00;97.60;;;;;;5093159;28;20020;-71
2023/04/14 10:33:17;;;;;;;0.15;0.13;;;14.40;97.30;;;;;;5092695;28;20099;-71
2023/04/14 10:35:46;;;;;;;0.20;0.20;;;14.40;96.80;;;;;;5091523;28;20468;-72
2023/04/14 10:38:13;;;;;;;4.28;0.85;;;14.50;96.50;;;;;;5093049;28;20036;-71
2023/04/14 10:40:51;;;;;;;1.02;0.50;;;14.70;96.30;;;;;;5109199;27;20369;-72
2023/04/14 10:43:17;;;;;;;0.10;0.10;;;14.80;96.60;;;;;;5103036;28;20035;-72
2023/04/14 10:45:56;;;;;;;0.70;0.28;;;14.40;96.00;;;;;;5110039;28;20016;-71
2023/04/14 10:48:27;;;;;;;2.65;0.57;;;14.90;96.00;;;;;;5110442;28;20032;-71
2023/04/14 10:50:58;;;;;;;0.53;0.40;;;14.60;96.20;;;;;;5089769;28;20365;-71
2023/04/14 10:53:27;;;;;;;5.72;0.57;;;14.60;95.80;;;;;;5090014;28;20028;-71
2023/04/14 10:55:57;;;;;;;0.82;0.30;;;14.90;96.20;;;;;;5088756;28;20024;-71
2023/04/14 10:58:28;;;;;;;0.20;0.10;;;15.10;95.90;;;;;;5088518;28;20460;-71
2023/04/14 11:00:56;;;;;;;0.10;0.10;;;15.10;96.20;;;;;;5089867;28;20118;-71
2023/04/14 11:03:22;;;;;;;5.05;0.20;;;15.20;95.90;;;;;;5089908;28;20016;-71
2023/04/14 11:05:50;;;;;;;0.10;0.10;;;15.10;95.70;;;;;;5089427;28;20039;-72
2023/04/14 11:08:26;;;;;;;9.38;0.65;;;14.50;95.20;;;;;;5089672;28;20021;-71
2023/04/14 11:11:26;;;;;;;0.20;0.20;;;14.30;95.90;;;;;;5088482;28;20060;-71
2023/04/14 11:14:10;;;;;;;0.82;0.80;;;14.20;96.30;;;;;;5069644;28;20510;-72
2023/04/14 11:16:38;;;;;;;0.82;0.55;;;14.10;96.20;;;;;;5068213;28;20067;-72
2023/04/14 11:19:13;;;;;;;0.00;0.00;;;14.10;96.30;;;;;;5071999;28;20087;-71
2023/04/14 11:21:49;;;;;;;0.10;0.10;;;14.70;96.40;;;;;;5060414;28;20021;-70
2023/04/14 11:24:16;;;;;;;4.38;0.68;;;14.80;95.60;;;;;;5066183;28;20029;-73
2023/04/14 11:26:46;;;;;;;3.65;0.88;;;14.50;96.40;;;;;;5068799;28;20473;-70
2023/04/14 11:29:12;;;;;;;0.98;0.68;;;14.70;96.00;;;;;;5067546;28;20083;-73
2023/04/14 11:31:38;;;;;;;0.00;0.00;;;14.80;96.60;;;;;;5068671;28;20358;-72
2023/04/14 11:34:05;;;;;;;0.28;0.28;;;15.10;95.70;;;;;;5068708;28;20021;-71
2023/04/14 11:36:35;;;;;;;0.45;0.45;;;14.80;95.20;;;;;;5069304;28;20283;-71
2023/04/14 11:39:02;;;;;;;1.13;0.50;;;15.40;95.70;;;;;;5084225;28;20532;-71
2023/04/14 11:41:29;;;;;;;0.85;0.63;;;15.40;95.50;;;;;;5089266;28;20047;-70
2023/04/14 11:43:55;;;;;;;0.28;0.28;;;15.00;95.20;;;;;;5088947;28;20491;-70
2023/04/14 11:46:23;;;;;;;1.65;0.35;;;14.90;95.90;;;;;;5089131;28;20028;-71
2023/04/14 11:48:56;;;;;;;0.75;0.30;;;15.00;95.20;;;;;;5087519;28;20040;-71
2023/04/14 11:51:32;;;;;;;1.55;0.60;;;15.30;95.00;;;;;;5079632;28;20063;-71
2023/04/14 11:53:59;;;;;;;0.28;0.10;;;15.00;95.80;;;;;;5060317;28;20074;-71
2023/04/14 11:56:27;;;;;;;3.70;0.28;;;15.30;95.60;;;;;;5075382;28;20040;-71
2023/04/14 11:59:03;;;;;;;0.55;0.55;;;15.50;95.50;;;;;;5075394;28;20090;-71
2023/04/14 12:01:30;;;;;;;0.20;0.20;;;16.20;95.40;;;;;;5075076;28;20035;-71
2023/04/14 12:03:56;;;;;;;0.00;0.00;;;16.00;94.90;;;;;;5075363;28;20021;-71
2023/04/14 12:06:23;;;;;;;0.20;0.20;;;15.90;94.20;;;;;;5074714;28;20028;-71
2023/04/14 12:08:53;;;;;;;0.35;0.20;;;16.10;94.10;;;;;;5073907;28;20036;-71
2023/04/14 12:11:19;;;;;;;0.65;0.20;;;16.40;93.70;;;;;;5074773;28;20020;-71
2023/04/14 12:13:46;;;;;;;0.10;0.10;;;16.00;94.10;;;;;;5075212;28;20052;-71
2023/04/14 12:16:13;;;;;;;0.98;0.50;;;16.30;93.80;;;;;;5074398;28;20112;-71
2023/04/14 12:18:40;;;;;;;1.00;0.63;;;15.50;94.60;;;;;;5075122;28;20372;-71
2023/04/14 12:21:06;;;;;;;0.77;0.77;;;16.00;94.30;;;;;;5074638;28;20423;-71
2023/04/14 12:23:40;;;;;;;0.10;0.10;;;16.10;94.50;;;;;;5074996;28;20120;-72
2023/04/14 12:26:13;;;;;;;1.33;0.47;;;17.10;93.70;;;;;;5074648;28;20378;-71
2023/04/14 12:28:40;;;;;;;1.15;0.20;;;17.50;92.30;;;;;;5062061;28;20028;-71
2023/04/14 12:31:07;;;;;;;1.35;0.55;;;16.60;92.50;;;;;;5073172;28;20034;-71
2023/04/14 12:33:33;;;;;;;3.20;0.70;;;16.20;92.90;;;;;;5074571;28;20111;-71
2023/04/14 12:36:03;;;;;;;2.25;0.40;;;16.10;93.20;;;;;;5074502;28;20103;-71
2023/04/14 12:38:29;;;;;;;1.00;0.28;;;15.70;92.90;;;;;;5074151;28;20036;-72
2023/04/14 12:40:55;;;;;;;1.70;0.15;;;16.30;93.20;;;;;;5074350;28;20016;-72
2023/04/14 12:43:39;;;;;;;0.55;0.38;;;16.80;91.80;;;;;;5056714;28;20028;-72
2023/04/14 12:46:06;;;;;;;2.45;0.40;;;15.90;92.40;;;;;;5073896;28;20074;-71
2023/04/14 12:48:43;;;;;;;1.85;0.20;;;15.70;93.10;;;;;;5074324;28;20024;-71
2023/04/14 12:51:11;;;;;;;0.00;0.00;;;15.70;92.90;;;;;;5074099;28;20032;-71
2023/04/14 12:53:37;;;;;;;1.45;0.85;;;16.20;92.30;;;;;;5074504;28;20090;-71
2023/04/14 12:56:15;;;;;;;1.08;0.60;;;16.20;92.40;;;;;;5074178;28;20017;-71
2023/04/14 12:58:45;;;;;;;0.13;0.13;;;16.10;92.60;;;;;;5074153;28;20508;-71
2023/04/14 13:01:12;;;;;;;0.17;0.17;;;16.80;92.50;;;;;;5072350;28;20033;-72